Time;durP1;ratioP1;P1;durP2;ratioP2;P2;SDS_P1;SDS_P2;PMS_P1;PMS_P2;Temp;Humidity;BMP_temperature;BMP_pressure;BME280_temperature;BME280_humidity;BME280_pressure;Samples;Min_cycle;Max_cycle;Signal;HPM_P1;HPM_P2
2021/03/01 05:10:56;;;;;;;1.10;1.10;;;5.60;99.90;;;;;;5779727;23;20235;-79
2021/03/01 05:13:23;;;;;;;1.10;1.10;;;5.70;99.90;;;;;;4996671;28;20208;-76
2021/03/01 05:15:50;;;;;;;1.10;1.10;;;5.70;99.90;;;;;;4997437;28;20634;-78
2021/03/01 05:18:17;;;;;;;1.30;1.30;;;5.80;99.90;;;;;;4995340;28;20215;-77
2021/03/01 05:20:44;;;;;;;1.20;1.20;;;5.80;99.90;;;;;;4994543;28;20271;-79
2021/03/01 05:23:11;;;;;;;1.10;1.10;;;5.80;99.90;;;;;;4994291;28;20208;-80
2021/03/01 05:25:38;;;;;;;1.10;1.10;;;5.90;99.90;;;;;;4992366;28;20204;-77
2021/03/01 05:28:06;;;;;;;1.00;1.00;;;5.80;99.90;;;;;;4992043;28;20203;-77
2021/03/01 05:30:33;;;;;;;1.00;1.00;;;5.80;99.90;;;;;;4994588;28;20263;-79
2021/03/01 05:33:01;;;;;;;0.93;0.93;;;5.80;99.90;;;;;;4975262;28;20232;-78
2021/03/01 05:35:27;;;;;;;1.10;1.10;;;5.90;99.90;;;;;;4987260;28;20704;-78
2021/03/01 05:37:56;;;;;;;1.10;1.10;;;5.70;99.90;;;;;;4996970;28;20262;-80
2021/03/01 05:40:22;;;;;;;1.20;1.20;;;5.60;99.90;;;;;;4996716;28;20258;-77
2021/03/01 05:42:51;;;;;;;1.10;1.10;;;5.60;99.90;;;;;;4995245;28;20262;-77
2021/03/01 05:45:19;;;;;;;1.17;1.17;;;5.60;99.90;;;;;;4999310;28;20207;-76
2021/03/01 05:47:46;;;;;;;1.20;1.20;;;5.70;99.90;;;;;;5003188;28;20255;-76
2021/03/01 05:50:14;;;;;;;1.20;1.20;;;5.80;99.90;;;;;;4991553;28;20654;-81
2021/03/01 05:52:46;;;;;;;1.10;1.10;;;5.80;99.90;;;;;;4998161;28;20208;-78
2021/03/01 05:55:15;;;;;;;1.10;1.10;;;5.90;99.90;;;;;;4978826;28;20283;-76
2021/03/01 05:57:43;;;;;;;1.10;1.10;;;6.00;99.90;;;;;;4975440;28;20728;-77
2021/03/01 06:00:13;;;;;;;1.00;1.00;;;6.00;99.90;;;;;;4975575;28;20564;-79
2021/03/01 06:02:41;;;;;;;1.27;1.27;;;6.00;99.90;;;;;;4998461;28;20255;-79
2021/03/01 06:05:13;;;;;;;1.30;1.30;;;5.90;99.90;;;;;;4995922;28;20686;-75
2021/03/01 06:07:41;;;;;;;1.20;1.20;;;5.80;99.90;;;;;;5003849;28;20200;-77
2021/03/01 06:10:09;;;;;;;0.90;0.90;;;5.70;99.90;;;;;;4997990;28;20200;-75
2021/03/01 06:12:36;;;;;;;1.20;1.20;;;5.60;99.90;;;;;;5008670;28;20617;-77
2021/03/01 06:15:05;;;;;;;1.20;1.20;;;5.50;99.90;;;;;;5010816;28;20278;-77
2021/03/01 06:17:32;;;;;;;1.23;1.23;;;5.60;99.90;;;;;;5012633;28;20207;-78
2021/03/01 06:20:00;;;;;;;1.20;1.20;;;5.60;99.90;;;;;;5012453;28;20208;-77
2021/03/01 06:22:40;;;;;;;1.13;1.13;;;5.50;99.90;;;;;;5012070;28;20224;-77
2021/03/01 06:25:11;;;;;;;1.20;1.20;;;5.50;99.90;;;;;;5012175;28;20254;-76
2021/03/01 06:27:48;;;;;;;1.30;1.30;;;5.60;99.90;;;;;;5012519;28;20261;-77
2021/03/01 06:30:17;;;;;;;1.30;1.30;;;5.50;99.90;;;;;;5012796;28;20210;-75
2021/03/01 06:33:01;;;;;;;1.20;1.20;;;5.50;99.90;;;;;;5014002;28;20199;-77
2021/03/01 06:35:31;;;;;;;1.10;1.10;;;5.60;99.90;;;;;;5013835;28;20219;-78
2021/03/01 06:38:19;;;;;;;1.20;1.20;;;5.50;99.90;;;;;;5013890;28;20211;-77
2021/03/01 06:41:09;;;;;;;1.10;1.10;;;5.50;99.90;;;;;;5013547;28;20275;-77
2021/03/01 06:43:37;;;;;;;1.20;1.20;;;5.50;99.90;;;;;;5013750;28;20494;-77
2021/03/01 06:46:12;;;;;;;1.20;1.20;;;5.50;99.90;;;;;;5013841;28;20249;-77
2021/03/01 06:48:40;;;;;;;1.30;1.30;;;5.50;99.90;;;;;;5013890;28;20675;-77
2021/03/01 06:51:09;;;;;;;1.10;1.10;;;5.50;99.90;;;;;;5014238;28;20219;-77
2021/03/01 06:53:37;;;;;;;1.10;1.10;;;5.40;99.90;;;;;;5013686;28;20203;-76
2021/03/01 06:56:06;;;;;;;1.20;1.20;;;5.50;99.90;;;;;;5013329;28;20219;-77
2021/03/01 06:58:37;;;;;;;1.20;1.20;;;5.60;99.90;;;;;;5013357;28;20211;-76
2021/03/01 07:01:07;;;;;;;1.10;1.10;;;5.50;99.90;;;;;;5013542;28;20223;-76
2021/03/01 07:03:36;;;;;;;1.27;1.27;;;5.50;99.90;;;;;;5013605;28;20214;-75
2021/03/01 07:06:05;;;;;;;1.00;1.00;;;5.60;99.90;;;;;;5013512;28;20218;-77
2021/03/01 07:08:45;;;;;;;1.20;1.20;;;5.60;99.90;;;;;;5013390;28;20199;-75
2021/03/01 07:11:27;;;;;;;1.20;1.20;;;5.60;99.90;;;;;;5013334;28;20234;-77
2021/03/01 07:13:57;;;;;;;1.47;1.47;;;5.70;99.90;;;;;;5013439;28;20200;-77
2021/03/01 07:16:24;;;;;;;1.23;1.23;;;5.80;99.90;;;;;;5013260;28;20661;-75
2021/03/01 07:18:52;;;;;;;1.10;1.10;;;5.80;99.90;;;;;;5013097;28;20243;-78
2021/03/01 07:21:20;;;;;;;1.20;1.20;;;5.90;99.90;;;;;;5012778;28;20226;-79
2021/03/01 07:23:49;;;;;;;1.20;1.20;;;5.90;99.90;;;;;;5013415;28;20227;-76
2021/03/01 07:26:17;;;;;;;1.10;1.10;;;6.00;99.90;;;;;;5013354;28;20245;-77
2021/03/01 07:28:49;;;;;;;1.23;1.23;;;6.00;99.90;;;;;;5012918;28;20195;-77
2021/03/01 07:31:19;;;;;;;0.93;0.93;;;5.90;99.90;;;;;;5012709;28;20219;-77
2021/03/01 07:33:47;;;;;;;1.10;1.10;;;6.10;99.90;;;;;;5013218;28;20203;-77
2021/03/01 07:36:15;;;;;;;1.20;1.20;;;6.20;99.90;;;;;;5013249;28;20219;-77
2021/03/01 07:38:44;;;;;;;1.17;1.17;;;6.20;99.90;;;;;;5012965;28;20226;-77
2021/03/01 07:41:11;;;;;;;1.10;1.10;;;6.30;99.90;;;;;;5012941;28;20226;-76
2021/03/01 07:43:42;;;;;;;1.20;1.20;;;6.30;99.90;;;;;;5012657;28;20206;-76
2021/03/01 07:46:10;;;;;;;1.10;1.10;;;6.40;99.90;;;;;;5012707;28;20199;-78
2021/03/01 07:48:39;;;;;;;0.93;0.93;;;6.40;99.90;;;;;;5012614;28;20279;-75
2021/03/01 07:51:07;;;;;;;1.00;1.00;;;6.40;99.90;;;;;;5012564;28;20269;-76
2021/03/01 07:53:49;;;;;;;1.03;1.03;;;6.40;99.90;;;;;;5012369;28;20218;-76
2021/03/01 07:56:51;;;;;;;1.10;1.10;;;6.40;99.90;;;;;;5012475;28;20277;-75
2021/03/01 07:59:32;;;;;;;1.10;1.10;;;6.40;99.90;;;;;;5012716;28;20199;-75
2021/03/01 08:02:20;;;;;;;1.20;1.20;;;6.50;99.90;;;;;;5012660;28;20313;-75
2021/03/01 08:04:47;;;;;;;1.03;1.03;;;6.50;99.90;;;;;;5012643;28;20203;-75
2021/03/01 08:07:14;;;;;;;1.00;1.00;;;6.50;99.90;;;;;;5012344;28;20199;-75
2021/03/01 08:09:50;;;;;;;1.20;1.20;;;6.40;99.90;;;;;;5012743;28;20203;-76
2021/03/01 08:12:54;;;;;;;1.10;1.10;;;6.20;99.90;;;;;;5012560;28;20646;-76
2021/03/01 08:15:41;;;;;;;1.00;1.00;;;6.40;99.90;;;;;;5012208;28;20580;-75
2021/03/01 08:18:10;;;;;;;1.00;1.00;;;6.40;99.90;;;;;;5012858;28;20211;-75
2021/03/01 08:20:42;;;;;;;1.00;1.00;;;6.50;99.90;;;;;;5012379;28;20704;-75
2021/03/01 08:23:18;;;;;;;1.30;1.30;;;6.50;99.90;;;;;;5012421;28;20215;-75
2021/03/01 08:25:53;;;;;;;1.10;1.10;;;6.60;99.90;;;;;;5012052;28;20210;-76
2021/03/01 08:28:49;;;;;;;1.20;1.20;;;6.60;99.90;;;;;;5012406;28;20207;-76
2021/03/01 08:31:44;;;;;;;1.10;1.10;;;6.70;99.90;;;;;;5012143;28;20223;-76
2021/03/01 08:34:33;;;;;;;1.00;1.00;;;6.80;99.90;;;;;;5012197;28;20209;-76
2021/03/01 08:37:03;;;;;;;1.00;1.00;;;6.90;99.90;;;;;;5012195;28;20227;-76
2021/03/01 08:39:54;;;;;;;1.10;1.10;;;7.00;99.90;;;;;;5012147;28;20199;-76
2021/03/01 08:42:43;;;;;;;1.07;1.07;;;7.10;99.90;;;;;;5011843;28;20570;-76
2021/03/01 08:45:11;;;;;;;1.00;1.00;;;7.10;99.90;;;;;;5012115;28;20204;-76
2021/03/01 08:47:55;;;;;;;1.10;1.10;;;7.10;99.90;;;;;;5012018;28;20214;-76
2021/03/01 08:50:25;;;;;;;1.20;1.20;;;7.00;99.90;;;;;;5010498;28;20203;-77
2021/03/01 08:53:07;;;;;;;1.00;1.00;;;7.00;99.90;;;;;;5011775;28;20287;-76
2021/03/01 08:55:35;;;;;;;1.10;1.10;;;7.00;99.90;;;;;;5011860;28;20227;-75
2021/03/01 08:58:05;;;;;;;1.10;1.10;;;7.00;99.90;;;;;;5011850;28;20199;-76
2021/03/01 09:00:33;;;;;;;1.23;1.23;;;6.80;99.90;;;;;;5011940;28;20638;-77
2021/03/01 09:03:12;;;;;;;1.10;1.10;;;6.60;99.90;;;;;;5011665;28;20253;-76
2021/03/01 09:05:40;;;;;;;1.20;1.20;;;6.70;99.90;;;;;;5015116;28;20206;-76
2021/03/01 09:08:08;;;;;;;1.00;1.00;;;6.70;99.90;;;;;;5015738;28;20258;-75
2021/03/01 09:10:37;;;;;;;1.10;1.10;;;6.90;99.90;;;;;;5015570;28;20285;-76
2021/03/01 09:13:05;;;;;;;0.90;0.90;;;7.00;99.90;;;;;;5015395;28;20206;-76
2021/03/01 09:15:32;;;;;;;1.00;1.00;;;7.10;99.90;;;;;;5015553;28;20219;-78
2021/03/01 09:17:59;;;;;;;1.00;1.00;;;7.20;99.90;;;;;;5015444;28;20235;-76
2021/03/01 09:20:27;;;;;;;1.00;1.00;;;7.40;99.90;;;;;;5015576;28;20281;-76
2021/03/01 09:22:54;;;;;;;1.10;1.10;;;7.30;99.90;;;;;;5015187;28;20214;-76
2021/03/01 09:25:29;;;;;;;1.10;1.10;;;7.30;99.90;;;;;;5015523;28;20254;-76
2021/03/01 09:27:58;;;;;;;1.00;1.00;;;7.30;99.90;;;;;;5015326;28;20286;-76
2021/03/01 09:30:27;;;;;;;1.10;1.10;;;7.60;99.90;;;;;;5015059;28;20235;-76
2021/03/01 09:32:59;;;;;;;0.90;0.90;;;7.40;99.90;;;;;;5015215;28;20207;-75
2021/03/01 09:35:29;;;;;;;1.00;1.00;;;7.60;99.90;;;;;;5015327;28;20230;-76
2021/03/01 09:38:03;;;;;;;1.10;1.10;;;7.70;99.90;;;;;;4995174;28;20736;-76
2021/03/01 09:40:32;;;;;;;1.00;1.00;;;7.80;99.90;;;;;;4994933;28;20207;-76
2021/03/01 09:43:03;;;;;;;1.00;1.00;;;7.50;99.90;;;;;;4994677;28;20330;-76
2021/03/01 09:45:32;;;;;;;1.25;1.25;;;7.50;99.90;;;;;;4994513;28;20562;-76
2021/03/01 09:48:01;;;;;;;1.02;1.02;;;7.50;99.90;;;;;;4994776;28;20279;-78
2021/03/01 09:50:29;;;;;;;1.00;1.00;;;7.70;99.90;;;;;;4994960;28;20204;-76
2021/03/01 09:52:57;;;;;;;1.20;1.20;;;7.60;99.90;;;;;;4994439;28;20208;-76
2021/03/01 09:55:24;;;;;;;0.90;0.90;;;7.80;99.90;;;;;;4994031;28;20227;-76
2021/03/01 09:57:52;;;;;;;1.00;1.00;;;7.80;99.90;;;;;;4994684;28;20211;-76
2021/03/01 10:00:27;;;;;;;1.00;1.00;;;8.00;99.90;;;;;;4995196;28;20611;-76
2021/03/01 10:03:00;;;;;;;1.00;1.00;;;7.80;99.90;;;;;;4995625;28;20199;-76
2021/03/01 10:05:30;;;;;;;1.20;1.20;;;7.80;99.90;;;;;;4994558;28;20348;-77
2021/03/01 10:07:59;;;;;;;1.00;1.00;;;7.90;99.90;;;;;;4994360;28;20258;-75
2021/03/01 10:10:34;;;;;;;0.90;0.90;;;8.20;99.90;;;;;;4994432;28;20239;-76
2021/03/01 10:13:02;;;;;;;1.20;1.20;;;8.00;99.90;;;;;;4994538;28;20203;-75
2021/03/01 10:15:28;;;;;;;0.97;0.97;;;7.90;99.90;;;;;;4993732;28;20278;-76
2021/03/01 10:18:09;;;;;;;1.00;1.00;;;7.90;99.90;;;;;;4994339;28;20204;-76
2021/03/01 10:20:48;;;;;;;1.23;1.23;;;8.10;99.90;;;;;;4993649;28;20572;-76
2021/03/01 10:23:33;;;;;;;0.93;0.93;;;8.20;99.90;;;;;;4993819;28;20270;-75
2021/03/01 10:26:05;;;;;;;1.00;1.00;;;8.30;99.90;;;;;;4993660;28;20254;-75
2021/03/01 10:28:34;;;;;;;0.90;0.90;;;8.40;99.90;;;;;;4993884;28;20625;-76
2021/03/01 10:31:03;;;;;;;1.00;1.00;;;8.40;99.90;;;;;;4994431;28;20320;-75
2021/03/01 10:33:30;;;;;;;1.10;1.10;;;8.40;99.90;;;;;;4994047;28;20196;-76
2021/03/01 10:36:08;;;;;;;1.05;1.05;;;8.20;99.90;;;;;;4993420;28;20212;-77
2021/03/01 10:38:53;;;;;;;1.10;1.10;;;8.20;99.90;;;;;;4993460;28;20203;-75
2021/03/01 10:41:21;;;;;;;1.05;1.05;;;8.30;99.90;;;;;;4993360;28;20219;-75
2021/03/01 10:43:56;;;;;;;1.10;1.10;;;8.30;99.90;;;;;;4993628;28;20786;-75
2021/03/01 10:46:30;;;;;;;1.00;1.00;;;8.30;99.90;;;;;;4993588;28;20620;-76
2021/03/01 10:48:58;;;;;;;1.10;1.10;;;8.50;99.90;;;;;;4994887;28;20295;-76
2021/03/01 10:51:25;;;;;;;0.98;0.98;;;8.50;99.90;;;;;;4994085;28;20220;-76
2021/03/01 10:53:53;;;;;;;1.00;1.00;;;8.40;99.90;;;;;;4993793;28;20591;-77
2021/03/01 10:56:20;;;;;;;1.08;1.08;;;8.50;99.90;;;;;;4993120;28;20224;-76
2021/03/01 10:58:46;;;;;;;1.00;1.00;;;8.60;99.90;;;;;;4993131;28;20549;-75
2021/03/01 11:01:13;;;;;;;0.90;0.90;;;8.80;99.90;;;;;;4993316;28;20282;-76
2021/03/01 11:03:40;;;;;;;1.30;1.30;;;9.50;99.90;;;;;;4993634;28;20255;-76
2021/03/01 11:06:08;;;;;;;1.00;1.00;;;9.00;99.90;;;;;;4993034;28;20211;-76
2021/03/01 11:08:35;;;;;;;0.90;0.90;;;9.10;99.90;;;;;;4993383;28;20616;-75
2021/03/01 11:11:02;;;;;;;1.00;1.00;;;9.10;99.90;;;;;;4993175;28;20232;-76
2021/03/01 11:13:29;;;;;;;0.80;0.80;;;9.20;99.90;;;;;;4993824;28;20285;-76
2021/03/01 11:15:56;;;;;;;1.00;1.00;;;9.30;99.90;;;;;;4992498;28;20223;-76
2021/03/01 11:18:23;;;;;;;0.90;0.90;;;9.30;99.90;;;;;;4993224;28;20214;-79
2021/03/01 11:20:50;;;;;;;0.90;0.90;;;9.20;99.90;;;;;;4992792;28;20727;-76
2021/03/01 11:23:17;;;;;;;0.93;0.93;;;9.20;99.90;;;;;;4993426;28;20204;-75
2021/03/01 11:25:46;;;;;;;0.80;0.80;;;9.30;99.90;;;;;;4995276;28;20200;-75
2021/03/01 11:28:14;;;;;;;1.00;1.00;;;9.20;99.90;;;;;;4994051;28;20215;-77
2021/03/01 11:30:41;;;;;;;1.00;1.00;;;9.30;99.90;;;;;;4993579;28;20227;-75
2021/03/01 11:33:08;;;;;;;0.98;0.98;;;9.30;99.90;;;;;;4992872;28;20610;-76
2021/03/01 11:35:35;;;;;;;0.98;0.98;;;9.40;99.90;;;;;;4992012;28;20714;-75
2021/03/01 11:38:03;;;;;;;0.93;0.93;;;9.60;99.90;;;;;;4992472;28;20236;-75
2021/03/01 11:40:30;;;;;;;0.98;0.98;;;9.90;99.90;;;;;;4992340;28;20489;-77
2021/03/01 11:42:58;;;;;;;0.90;0.90;;;9.70;99.90;;;;;;4992648;28;20657;-75
2021/03/01 11:45:25;;;;;;;0.93;0.93;;;9.60;99.90;;;;;;4992201;28;20207;-75
2021/03/01 11:47:52;;;;;;;0.98;0.98;;;9.70;99.90;;;;;;4992994;28;20278;-78
2021/03/01 11:50:19;;;;;;;1.00;1.00;;;9.70;99.90;;;;;;4994474;28;20211;-74
2021/03/01 11:52:46;;;;;;;0.90;0.90;;;9.70;99.90;;;;;;4993037;28;20258;-75
2021/03/01 11:55:14;;;;;;;1.00;1.00;;;9.60;99.90;;;;;;4991966;28;20212;-75
2021/03/01 11:57:41;;;;;;;1.00;1.00;;;9.50;99.90;;;;;;4992119;28;20247;-75
2021/03/01 12:00:10;;;;;;;0.90;0.90;;;9.30;99.90;;;;;;4992289;28;20208;-74
2021/03/01 12:02:56;;;;;;;0.90;0.90;;;9.30;99.90;;;;;;4992121;28;20295;-75
2021/03/01 12:05:24;;;;;;;0.90;0.90;;;9.30;99.90;;;;;;4991802;28;20212;-75
2021/03/01 12:07:51;;;;;;;0.90;0.90;;;9.30;99.90;;;;;;4991942;28;20259;-74
2021/03/01 12:10:18;;;;;;;0.90;0.90;;;9.50;99.90;;;;;;4992759;28;20665;-74
2021/03/01 12:12:44;;;;;;;1.00;1.00;;;9.50;99.90;;;;;;4992742;28;20731;-75
2021/03/01 12:15:13;;;;;;;0.80;0.80;;;9.70;99.90;;;;;;4991733;28;20203;-75
2021/03/01 12:17:40;;;;;;;0.85;0.85;;;9.90;99.90;;;;;;4992152;28;20208;-75
2021/03/01 12:20:08;;;;;;;0.80;0.80;;;9.90;99.90;;;;;;4991730;28;20200;-74
2021/03/01 12:22:36;;;;;;;0.85;0.85;;;9.90;99.90;;;;;;4992041;28;20704;-76
2021/03/01 12:25:04;;;;;;;0.80;0.80;;;10.00;99.90;;;;;;4991923;28;20591;-75
2021/03/01 12:27:31;;;;;;;0.90;0.90;;;10.10;99.90;;;;;;4992123;28;20208;-75
2021/03/01 12:29:58;;;;;;;0.90;0.90;;;10.20;99.90;;;;;;4992352;28;20211;-75
2021/03/01 12:32:25;;;;;;;0.80;0.80;;;10.40;99.90;;;;;;4992584;28;20278;-75
2021/03/01 12:34:53;;;;;;;0.93;0.93;;;10.20;99.90;;;;;;4991480;28;20291;-76
2021/03/01 12:37:20;;;;;;;0.85;0.85;;;10.40;99.90;;;;;;4992135;28;20280;-76
2021/03/01 12:39:47;;;;;;;0.90;0.90;;;10.60;99.90;;;;;;4995725;28;20207;-75
2021/03/01 12:42:14;;;;;;;0.80;0.80;;;10.50;99.90;;;;;;4995715;28;20282;-75
2021/03/01 12:44:40;;;;;;;0.90;0.90;;;10.20;99.80;;;;;;4995699;28;20660;-75
2021/03/01 12:47:10;;;;;;;0.80;0.80;;;10.10;99.50;;;;;;4995884;28;20254;-74
2021/03/01 12:49:38;;;;;;;0.88;0.88;;;10.00;99.90;;;;;;4996042;28;20857;-74
2021/03/01 12:52:05;;;;;;;0.90;0.90;;;9.80;99.90;;;;;;4995522;28;20484;-74
2021/03/01 12:54:32;;;;;;;1.00;1.00;;;9.60;99.90;;;;;;4995440;28;20654;-75
2021/03/01 12:57:00;;;;;;;1.00;1.00;;;9.40;99.90;;;;;;4996013;28;20449;-75
2021/03/01 12:59:26;;;;;;;0.93;0.93;;;9.20;99.90;;;;;;4995898;28;20552;-75
2021/03/01 13:01:55;;;;;;;1.00;1.00;;;9.00;99.90;;;;;;4995850;28;20224;-75
2021/03/01 13:04:23;;;;;;;1.00;1.00;;;8.90;99.90;;;;;;4995049;28;20577;-77
2021/03/01 13:06:51;;;;;;;1.00;1.00;;;8.90;99.90;;;;;;4995496;28;20200;-76
2021/03/01 13:09:18;;;;;;;0.90;0.90;;;8.80;99.90;;;;;;4995953;28;20278;-77
2021/03/01 13:12:05;;;;;;;0.90;0.90;;;8.80;99.90;;;;;;4995685;28;20318;-75
2021/03/01 13:14:32;;;;;;;0.90;0.90;;;8.70;99.90;;;;;;4995050;28;20200;-75
2021/03/01 13:16:59;;;;;;;1.05;1.05;;;8.60;99.90;;;;;;4995458;28;20224;-75
2021/03/01 13:19:26;;;;;;;0.90;0.90;;;8.60;99.90;;;;;;4995211;28;20308;-76
2021/03/01 13:21:54;;;;;;;1.05;1.05;;;8.50;99.90;;;;;;4994632;28;20294;-76
2021/03/01 13:24:21;;;;;;;1.00;1.00;;;8.50;99.90;;;;;;4995532;28;20208;-75
2021/03/01 13:26:48;;;;;;;0.90;0.90;;;8.50;99.90;;;;;;4995270;28;20211;-75
2021/03/01 13:29:16;;;;;;;0.80;0.80;;;8.60;99.90;;;;;;4995826;28;20204;-75
2021/03/01 13:31:48;;;;;;;1.00;1.00;;;8.60;99.90;;;;;;4995640;28;20223;-75
2021/03/01 13:34:35;;;;;;;0.90;0.90;;;8.70;99.90;;;;;;4994892;28;20286;-76
2021/03/01 13:37:03;;;;;;;1.00;1.00;;;8.80;99.90;;;;;;4994651;28;20224;-75
2021/03/01 13:39:31;;;;;;;0.95;0.95;;;8.70;99.90;;;;;;4994994;28;20208;-75
2021/03/01 13:41:58;;;;;;;1.00;1.00;;;8.50;99.90;;;;;;4994636;28;20280;-75
2021/03/01 13:44:26;;;;;;;1.00;1.00;;;8.50;99.90;;;;;;4994872;28;20212;-75
2021/03/01 13:46:52;;;;;;;1.08;1.08;;;8.40;99.90;;;;;;4994781;28;20724;-77
2021/03/01 13:49:21;;;;;;;0.90;0.90;;;8.40;99.90;;;;;;4994185;28;20200;-76
2021/03/01 13:51:48;;;;;;;0.90;0.90;;;8.50;99.90;;;;;;4994342;28;20705;-75
2021/03/01 13:54:22;;;;;;;0.80;0.80;;;8.30;99.90;;;;;;4994302;28;20292;-76
2021/03/01 13:56:49;;;;;;;1.00;1.00;;;8.50;99.90;;;;;;4994576;28;20307;-77
2021/03/01 13:59:16;;;;;;;0.90;0.90;;;8.60;99.90;;;;;;4994252;28;20200;-73
2021/03/01 14:01:43;;;;;;;0.98;0.98;;;8.60;99.90;;;;;;4994133;28;20243;-73
2021/03/01 14:04:10;;;;;;;0.90;0.90;;;8.70;99.90;;;;;;4994293;28;20215;-74
2021/03/01 14:06:38;;;;;;;1.00;1.00;;;8.70;99.90;;;;;;4993732;28;20819;-74
2021/03/01 14:09:05;;;;;;;1.00;1.00;;;8.80;99.90;;;;;;4983575;28;20212;-73
2021/03/01 14:11:33;;;;;;;0.98;0.98;;;8.90;99.90;;;;;;4994103;28;20291;-74
2021/03/01 14:14:00;;;;;;;1.00;1.00;;;8.80;99.90;;;;;;4993890;28;20753;-72
2021/03/01 14:16:27;;;;;;;1.00;1.00;;;8.60;99.90;;;;;;4993956;28;20282;-75
2021/03/01 14:18:55;;;;;;;1.00;1.00;;;8.30;99.90;;;;;;4993895;28;20212;-75
2021/03/01 14:21:21;;;;;;;1.00;1.00;;;8.10;99.90;;;;;;4993926;28;20709;-74
2021/03/01 14:23:48;;;;;;;0.90;0.90;;;8.10;99.90;;;;;;4993936;28;20234;-75
2021/03/01 14:26:15;;;;;;;0.95;0.95;;;8.10;99.90;;;;;;4993975;28;20200;-75
2021/03/01 14:28:43;;;;;;;0.90;0.90;;;8.30;99.90;;;;;;4994540;28;20211;-75
2021/03/01 14:31:10;;;;;;;1.00;1.00;;;8.30;99.90;;;;;;4994281;28;20758;-76
2021/03/01 14:33:36;;;;;;;1.00;1.00;;;8.40;99.90;;;;;;4993627;28;20508;-74
2021/03/01 14:36:05;;;;;;;1.00;1.00;;;8.50;99.90;;;;;;4994536;28;20230;-74
2021/03/01 14:38:32;;;;;;;0.90;0.90;;;8.60;99.90;;;;;;4994630;28;20203;-79
2021/03/01 14:40:59;;;;;;;1.00;1.00;;;8.70;99.90;;;;;;4994178;28;20251;-77
2021/03/01 14:43:30;;;;;;;0.90;0.90;;;8.80;99.90;;;;;;4993881;28;20262;-76
2021/03/01 14:45:58;;;;;;;0.98;0.98;;;8.90;99.90;;;;;;4993591;28;20259;-75
2021/03/01 14:48:25;;;;;;;0.90;0.90;;;9.10;99.90;;;;;;4994150;28;20251;-76
2021/03/01 14:50:53;;;;;;;0.90;0.90;;;9.20;99.90;;;;;;4994444;28;20232;-76
2021/03/01 14:53:21;;;;;;;0.90;0.90;;;9.30;99.90;;;;;;4993134;28;20204;-76
2021/03/01 14:55:48;;;;;;;0.90;0.90;;;9.40;99.90;;;;;;4993329;28;20578;-76
2021/03/01 14:58:16;;;;;;;0.90;0.90;;;9.50;99.90;;;;;;4993512;28;20589;-76
2021/03/01 15:00:43;;;;;;;0.80;0.80;;;9.60;99.90;;;;;;4993547;28;20219;-78
2021/03/01 15:03:11;;;;;;;0.70;0.70;;;9.60;99.90;;;;;;4993217;28;20716;-78
2021/03/01 15:05:43;;;;;;;0.70;0.70;;;9.60;99.90;;;;;;4993564;28;20203;-76
2021/03/01 15:08:12;;;;;;;0.90;0.90;;;9.40;99.90;;;;;;4993658;28;20204;-75
2021/03/01 15:10:39;;;;;;;0.95;0.95;;;9.30;99.90;;;;;;4993825;28;20232;-76
2021/03/01 15:13:27;;;;;;;0.90;0.90;;;9.20;99.90;;;;;;4992928;28;20286;-75
2021/03/01 15:15:55;;;;;;;0.90;0.90;;;9.30;99.90;;;;;;4993234;28;20728;-76
2021/03/01 15:18:23;;;;;;;1.10;1.10;;;9.20;99.90;;;;;;4993076;28;20628;-77
2021/03/01 15:20:50;;;;;;;0.90;0.90;;;9.20;99.90;;;;;;4993052;28;20230;-76
2021/03/01 15:23:18;;;;;;;0.90;0.90;;;9.20;99.90;;;;;;4993441;28;20208;-76
2021/03/01 15:25:47;;;;;;;0.90;0.90;;;9.30;99.90;;;;;;4993341;28;20212;-78
2021/03/01 15:28:15;;;;;;;0.90;0.90;;;9.30;99.90;;;;;;4993679;28;20647;-76
2021/03/01 15:30:42;;;;;;;0.90;0.90;;;9.30;99.90;;;;;;4993250;28;20224;-77
2021/03/01 15:33:09;;;;;;;0.90;0.90;;;9.40;99.90;;;;;;4992561;28;20800;-76
2021/03/01 15:35:37;;;;;;;0.90;0.90;;;9.40;99.90;;;;;;4992871;28;20246;-76
2021/03/01 15:38:06;;;;;;;0.90;0.90;;;9.30;99.90;;;;;;4992714;28;20315;-76
2021/03/01 15:40:33;;;;;;;0.90;0.90;;;9.40;99.90;;;;;;4993107;28;20274;-77
2021/03/01 15:43:00;;;;;;;0.88;0.88;;;9.40;99.90;;;;;;4992652;28;20254;-76
2021/03/01 15:45:28;;;;;;;0.90;0.90;;;9.50;99.90;;;;;;4992858;28;20208;-76
2021/03/01 15:47:56;;;;;;;0.90;0.90;;;9.50;99.90;;;;;;4993017;28;20503;-75
2021/03/01 15:50:24;;;;;;;0.90;0.90;;;9.40;99.90;;;;;;4985399;28;20646;-77
2021/03/01 15:52:51;;;;;;;0.90;0.90;;;9.40;99.90;;;;;;4987856;28;20665;-76
2021/03/01 15:55:19;;;;;;;0.90;0.90;;;9.40;99.90;;;;;;5002053;28;20204;-75
2021/03/01 15:57:45;;;;;;;0.98;0.98;;;9.40;99.90;;;;;;5001029;28;20232;-74
2021/03/01 16:00:14;;;;;;;1.00;1.00;;;9.30;99.90;;;;;;4991344;28;20646;-75
2021/03/01 16:02:41;;;;;;;1.00;1.00;;;9.30;99.90;;;;;;4999350;28;20204;-75
2021/03/01 16:05:09;;;;;;;0.90;0.90;;;9.20;99.90;;;;;;4991192;28;20339;-75
2021/03/01 16:07:36;;;;;;;1.00;1.00;;;9.10;99.90;;;;;;4990991;28;20575;-76
2021/03/01 16:10:05;;;;;;;0.80;0.80;;;9.10;99.90;;;;;;4991240;28;20227;-76
2021/03/01 16:12:32;;;;;;;0.90;0.90;;;8.90;99.90;;;;;;4990078;28;20228;-78
2021/03/01 16:14:59;;;;;;;1.10;1.10;;;8.90;99.90;;;;;;4991194;28;20210;-76
2021/03/01 16:17:34;;;;;;;1.00;1.00;;;8.80;99.90;;;;;;4990905;28;20273;-79
2021/03/01 16:20:04;;;;;;;1.00;1.00;;;8.60;99.90;;;;;;4990936;28;20269;-78
2021/03/01 16:22:31;;;;;;;0.95;0.95;;;8.50;99.90;;;;;;4991714;28;20220;-79
2021/03/01 16:24:58;;;;;;;1.00;1.00;;;8.50;99.90;;;;;;4991166;28;20254;-78
2021/03/01 16:27:26;;;;;;;0.80;0.80;;;8.50;99.90;;;;;;4991036;28;20204;-78
2021/03/01 16:30:07;;;;;;;1.00;1.00;;;8.40;99.90;;;;;;4991475;28;20207;-77
2021/03/01 16:32:34;;;;;;;1.00;1.00;;;8.30;99.90;;;;;;4990651;28;20232;-80
2021/03/01 16:35:01;;;;;;;1.10;1.10;;;8.20;99.90;;;;;;4990799;28;20254;-78
2021/03/01 16:37:28;;;;;;;0.98;0.98;;;8.10;99.90;;;;;;4991444;28;20241;-78
2021/03/01 16:39:55;;;;;;;0.90;0.90;;;8.10;99.90;;;;;;4990619;28;20274;-80
2021/03/01 16:42:25;;;;;;;0.90;0.90;;;8.10;99.90;;;;;;4991239;28;20310;-77
2021/03/01 16:44:53;;;;;;;1.00;1.00;;;8.10;99.90;;;;;;4991530;28;20266;-78
2021/03/01 16:47:20;;;;;;;1.00;1.00;;;8.20;99.90;;;;;;4991173;28;20196;-74
2021/03/01 16:49:48;;;;;;;1.00;1.00;;;8.00;99.90;;;;;;4995684;28;20199;-77
2021/03/01 16:52:15;;;;;;;0.90;0.90;;;8.10;99.90;;;;;;5000786;28;20318;-76
2021/03/01 16:54:49;;;;;;;0.90;0.90;;;8.10;99.90;;;;;;5010424;28;20203;-76
2021/03/01 16:57:17;;;;;;;1.00;1.00;;;8.00;99.90;;;;;;5010580;28;20230;-77
2021/03/01 16:59:48;;;;;;;1.00;1.00;;;8.00;99.90;;;;;;5010058;28;20207;-79
2021/03/01 17:02:17;;;;;;;1.00;1.00;;;8.00;99.90;;;;;;5010789;28;20285;-77
2021/03/01 17:04:45;;;;;;;1.00;1.00;;;8.00;99.90;;;;;;4995060;28;20197;-75
2021/03/01 17:07:25;;;;;;;1.00;1.00;;;7.80;99.90;;;;;;4998349;28;20210;-77
2021/03/01 17:09:58;;;;;;;1.00;1.00;;;7.70;99.90;;;;;;4997089;28;20215;-76
2021/03/01 17:12:49;;;;;;;1.10;1.10;;;7.50;99.90;;;;;;4968900;28;20291;-75
2021/03/01 17:15:19;;;;;;;1.00;1.00;;;7.30;99.90;;;;;;4990912;28;21028;-74
2021/03/01 17:17:47;;;;;;;1.10;1.10;;;7.30;99.90;;;;;;5002696;28;20720;-74
2021/03/01 17:20:15;;;;;;;1.00;1.00;;;7.10;99.90;;;;;;5008358;28;20270;-75
2021/03/01 17:22:45;;;;;;;1.10;1.10;;;7.10;99.90;;;;;;5009607;28;20815;-75
2021/03/01 17:25:12;;;;;;;1.00;1.00;;;7.00;99.90;;;;;;5011827;23;20642;-76
2021/03/01 17:27:40;;;;;;;1.17;1.17;;;7.00;99.90;;;;;;4996404;28;20203;-78
2021/03/01 17:30:09;;;;;;;1.00;1.00;;;6.90;99.90;;;;;;4999843;28;20739;-77
2021/03/01 17:32:37;;;;;;;1.00;1.00;;;6.90;99.90;;;;;;4993077;28;20614;-77
2021/03/01 17:35:11;;;;;;;1.10;1.10;;;6.80;99.90;;;;;;4985141;28;20729;-77
2021/03/01 17:37:43;;;;;;;1.10;1.10;;;6.80;99.90;;;;;;4990623;28;20278;-76
2021/03/01 17:40:15;;;;;;;1.07;1.07;;;6.70;99.90;;;;;;5005068;28;20218;-77
2021/03/01 17:42:49;;;;;;;1.00;1.00;;;6.80;99.90;;;;;;5003300;28;20216;-78
2021/03/01 17:45:18;;;;;;;1.10;1.10;;;6.90;99.90;;;;;;4996845;28;20224;-76
2021/03/01 17:47:55;;;;;;;1.00;1.00;;;6.90;99.90;;;;;;4981101;28;20280;-77
2021/03/01 17:50:30;;;;;;;1.00;1.00;;;6.90;99.90;;;;;;4975357;28;20562;-77
2021/03/01 17:53:02;;;;;;;1.00;1.00;;;6.90;99.90;;;;;;4976374;28;20205;-77
2021/03/01 17:55:38;;;;;;;1.10;1.10;;;6.80;99.90;;;;;;4976361;28;20220;-75
2021/03/01 17:58:20;;;;;;;1.10;1.10;;;6.70;99.90;;;;;;4973978;28;20332;-76
2021/03/01 18:00:48;;;;;;;1.00;1.00;;;6.80;99.90;;;;;;4975539;28;20590;-80
2021/03/01 18:03:19;;;;;;;1.17;1.17;;;6.80;99.90;;;;;;4975400;28;20552;-75
2021/03/01 18:05:49;;;;;;;1.00;1.00;;;6.80;99.90;;;;;;4975817;28;20231;-76
2021/03/01 18:08:18;;;;;;;1.00;1.00;;;6.80;99.90;;;;;;4973684;28;20208;-76
2021/03/01 18:10:47;;;;;;;1.10;1.10;;;6.70;99.90;;;;;;4973552;28;20630;-75
2021/03/01 18:13:21;;;;;;;1.00;1.00;;;6.70;99.90;;;;;;4973263;28;20201;-75
2021/03/01 18:15:50;;;;;;;1.07;1.07;;;6.60;99.90;;;;;;4975471;28;20232;-78
2021/03/01 18:18:20;;;;;;;1.10;1.10;;;6.40;99.90;;;;;;4978084;28;20256;-78
2021/03/01 18:20:53;;;;;;;1.00;1.00;;;6.40;99.90;;;;;;4977084;28;20205;-78
2021/03/01 18:23:22;;;;;;;1.00;1.00;;;6.40;99.90;;;;;;4979582;28;20204;-76